Time;durP1;ratioP1;P1;durP2;ratioP2;P2;SDS_P1;SDS_P2;PMS_P1;PMS_P2;Temp;Humidity;BMP_temperature;BMP_pressure;BME280_temperature;BME280_humidity;BME280_pressure;Samples;Min_cycle;Max_cycle;Signal;HPM_P1;HPM_P2
2022/12/28 00:00:53;;;;;;;13.57;5.22;;;;;;;;;;4996835;28;20081;-79
2022/12/28 00:03:22;;;;;;;16.60;6.05;;;;;;;;;;4997767;28;20053;-80
2022/12/28 00:05:49;;;;;;;15.15;4.88;;;;;;;;;;4992536;28;20506;-80
2022/12/28 00:08:16;;;;;;;18.80;5.35;;;;;;;;;;4997703;28;20056;-81
2022/12/28 00:10:44;;;;;;;16.23;5.07;;;;;;;;;;5005322;28;20053;-80
2022/12/28 00:13:11;;;;;;;12.80;5.20;;;;;;;;;;4999446;28;20058;-80
2022/12/28 00:15:38;;;;;;;20.00;5.82;;;;;;;;;;4985230;28;20463;-79
2022/12/28 00:18:06;;;;;;;16.00;5.05;;;;;;;;;;4986384;28;20053;-80
2022/12/28 00:20:34;;;;;;;17.30;5.97;;;;;;;;;;4992731;28;20460;-80
2022/12/28 00:23:05;;;;;;;19.10;5.97;;;;;;;;;;4998652;28;20044;-80
2022/12/28 00:25:34;;;;;;;15.75;5.85;;;;;;;;;;4981727;28;20041;-80
2022/12/28 00:28:02;;;;;;;23.90;5.55;;;;;;;;;;4992960;28;20084;-80
2022/12/28 00:30:29;;;;;;;14.18;6.07;;;;;;;;;;4992132;28;20054;-80
2022/12/28 00:32:57;;;;;;;16.00;6.70;;;;;;;;;;4998881;28;20049;-80
2022/12/28 00:35:24;;;;;;;18.20;6.03;;;;;;;;;;4999367;28;20117;-81
2022/12/28 00:37:53;;;;;;;15.20;5.85;;;;;;;;;;4996453;28;20049;-80
2022/12/28 00:40:20;;;;;;;16.63;7.13;;;;;;;;;;4997113;28;20057;-80
2022/12/28 00:42:48;;;;;;;16.10;5.80;;;;;;;;;;5003089;28;20132;-80
2022/12/28 00:45:15;;;;;;;16.20;5.88;;;;;;;;;;4998626;28;20053;-80
2022/12/28 00:47:42;;;;;;;16.80;5.93;;;;;;;;;;5024415;28;20108;-80
2022/12/28 00:50:10;;;;;;;16.83;6.32;;;;;;;;;;4993192;28;20128;-80
2022/12/28 00:52:38;;;;;;;17.65;6.38;;;;;;;;;;4996130;28;20049;-80
2022/12/28 00:55:07;;;;;;;16.83;6.15;;;;;;;;;;4997469;28;20038;-80
2022/12/28 00:57:36;;;;;;;16.48;6.32;;;;;;;;;;4995658;28;20131;-80
2022/12/28 01:00:03;;;;;;;12.18;6.13;;;;;;;;;;5001486;28;20059;-80
2022/12/28 01:02:31;;;;;;;17.80;6.60;;;;;;;;;;4996916;28;20413;-80
2022/12/28 01:04:58;;;;;;;18.45;6.10;;;;;;;;;;4991188;28;20050;-79
2022/12/28 01:07:25;;;;;;;16.00;6.10;;;;;;;;;;4994755;28;20874;-80
2022/12/28 01:09:52;;;;;;;19.55;6.47;;;;;;;;;;4985003;28;20088;-80
2022/12/28 01:12:21;;;;;;;18.63;6.63;;;;;;;;;;4990986;28;20057;-79
2022/12/28 01:14:48;;;;;;;15.48;6.78;;;;;;;;;;4982800;28;20492;-81
2022/12/28 01:17:16;;;;;;;21.42;7.50;;;;;;;;;;4994180;28;20066;-80
2022/12/28 01:19:43;;;;;;;16.95;7.55;;;;;;;;;;4991892;28;20057;-80
2022/12/28 01:22:10;;;;;;;18.08;8.68;;;;;;;;;;4998411;28;20042;-77
2022/12/28 01:24:37;;;;;;;21.60;8.70;;;;;;;;;;4997260;28;20053;-79
2022/12/28 01:27:05;;;;;;;14.05;7.53;;;;;;;;;;5000796;28;20397;-78
2022/12/28 01:29:33;;;;;;;19.10;8.20;;;;;;;;;;4999832;28;20052;-81
2022/12/28 01:32:01;;;;;;;20.38;8.38;;;;;;;;;;4995797;28;20433;-80
2022/12/28 01:34:28;;;;;;;20.63;9.27;;;;;;;;;;4995537;28;20053;-79
2022/12/28 01:36:55;;;;;;;22.70;10.10;;;;;;;;;;4998135;28;20046;-78
2022/12/28 01:39:22;;;;;;;19.13;8.63;;;;;;;;;;4997718;28;20050;-79
2022/12/28 01:41:50;;;;;;;25.33;11.13;;;;;;;;;;4995518;28;20057;-80
2022/12/28 01:44:41;;;;;;;25.80;10.02;;;;;;;;;;4991000;28;20137;-81
2022/12/28 01:47:11;;;;;;;23.45;10.15;;;;;;;;;;4998490;28;20041;-79
2022/12/28 01:49:40;;;;;;;23.88;10.25;;;;;;;;;;4993234;28;20061;-78
2022/12/28 01:52:09;;;;;;;16.77;10.07;;;;;;;;;;4990403;28;20059;-79
2022/12/28 01:54:39;;;;;;;21.17;10.60;;;;;;;;;;4989279;28;20552;-78
2022/12/28 01:57:06;;;;;;;26.38;11.15;;;;;;;;;;4996811;28;20140;-79
2022/12/28 01:59:38;;;;;;;26.90;12.10;;;;;;;;;;4997845;28;20089;-79
2022/12/28 02:02:07;;;;;;;29.73;11.40;;;;;;;;;;4992007;28;20479;-79
2022/12/28 02:04:34;;;;;;;24.58;12.63;;;;;;;;;;4988035;28;20077;-79
2022/12/28 02:07:01;;;;;;;22.45;12.68;;;;;;;;;;5000332;28;20061;-79
2022/12/28 02:09:31;;;;;;;33.05;14.20;;;;;;;;;;4993788;28;20052;-77
2022/12/28 02:11:59;;;;;;;24.20;12.90;;;;;;;;;;4980248;28;20042;-78
2022/12/28 02:14:27;;;;;;;22.63;13.25;;;;;;;;;;4989888;28;20046;-79
2022/12/28 02:16:54;;;;;;;26.10;13.82;;;;;;;;;;4997488;28;20047;-79
2022/12/28 02:19:28;;;;;;;28.55;15.80;;;;;;;;;;4986733;28;20393;-79
2022/12/28 02:22:06;;;;;;;31.90;14.40;;;;;;;;;;4995972;28;20065;-77
2022/12/28 02:24:40;;;;;;;28.40;13.85;;;;;;;;;;4998149;28;20525;-82
2022/12/28 02:27:13;;;;;;;30.05;15.55;;;;;;;;;;4997856;28;20057;-79
2022/12/28 02:30:01;;;;;;;37.03;14.98;;;;;;;;;;4988281;28;20056;-78
2022/12/28 02:32:43;;;;;;;29.92;16.33;;;;;;;;;;4996422;28;20046;-80
2022/12/28 02:35:15;;;;;;;30.73;16.42;;;;;;;;;;4988168;28;20694;-80
2022/12/28 02:37:45;;;;;;;35.88;18.35;;;;;;;;;;4997141;28;20382;-80
2022/12/28 02:40:14;;;;;;;38.08;16.48;;;;;;;;;;5025844;28;20130;-78
2022/12/28 02:42:42;;;;;;;31.60;14.85;;;;;;;;;;4991550;28;20072;-78
2022/12/28 02:51:01;;;;;;;32.80;17.73;;;;;;;;;;4990475;28;20069;-77
2022/12/28 02:53:34;;;;;;;36.50;18.00;;;;;;;;;;4993869;28;20771;-80
2022/12/28 02:56:07;;;;;;;32.37;19.27;;;;;;;;;;5004128;28;20128;-79
2022/12/28 02:58:48;;;;;;;31.77;18.88;;;;;;;;;;5000210;28;20185;-79
2022/12/28 03:01:20;;;;;;;40.05;21.92;;;;;;;;;;4997164;28;20046;-80
2022/12/28 03:03:55;;;;;;;33.58;20.67;;;;;;;;;;4992705;28;20081;-83
2022/12/28 03:09:14;;;;;;;31.92;20.70;;;;;;;;;;4981076;28;20125;-83
2022/12/28 03:11:44;;;;;;;38.75;21.98;;;;;;;;;;4998191;28;20436;-82
2022/12/28 03:14:13;;;;;;;39.78;22.17;;;;;;;;;;4999056;28;20543;-80
2022/12/28 03:33:20;;;;;;;35.90;21.20;;;;;;;;;;4990342;28;20157;-80
2022/12/28 03:35:56;;;;;;;37.28;22.35;;;;;;;;;;4997236;28;20248;-83
2022/12/28 03:38:29;;;;;;;37.70;21.40;;;;;;;;;;4990614;28;20050;-80
2022/12/28 03:41:01;;;;;;;43.28;22.52;;;;;;;;;;4992024;28;20041;-80
2022/12/28 03:43:40;;;;;;;40.63;23.58;;;;;;;;;;4998722;28;21235;-81
2022/12/28 03:46:10;;;;;;;42.15;23.48;;;;;;;;;;4996789;28;20671;-79
2022/12/28 03:48:38;;;;;;;50.17;24.48;;;;;;;;;;4999160;28;20049;-80
2022/12/28 03:51:05;;;;;;;46.00;27.13;;;;;;;;;;4999680;28;20049;-79
2022/12/28 03:53:37;;;;;;;44.15;25.00;;;;;;;;;;5000949;28;20056;-80
2022/12/28 03:56:09;;;;;;;44.70;25.65;;;;;;;;;;5001738;28;20053;-81
2022/12/28 03:58:36;;;;;;;43.13;25.73;;;;;;;;;;4993357;28;20456;-80
2022/12/28 04:01:04;;;;;;;47.65;25.35;;;;;;;;;;4995972;28;20046;-83
2022/12/28 04:03:31;;;;;;;45.15;25.23;;;;;;;;;;4999098;28;20060;-82
2022/12/28 04:05:58;;;;;;;44.15;24.60;;;;;;;;;;4996469;28;20053;-82
2022/12/28 04:08:26;;;;;;;50.42;28.30;;;;;;;;;;5001904;28;20045;-80
2022/12/28 04:10:54;;;;;;;45.05;27.08;;;;;;;;;;4997512;28;20056;-80
2022/12/28 04:13:22;;;;;;;48.75;26.95;;;;;;;;;;4991079;28;20067;-82
2022/12/28 04:15:56;;;;;;;46.55;26.58;;;;;;;;;;4999537;28;20072;-78
2022/12/28 04:18:23;;;;;;;42.22;26.55;;;;;;;;;;4993672;28;20046;-81
2022/12/28 04:20:50;;;;;;;51.90;27.33;;;;;;;;;;4997463;28;20057;-80
2022/12/28 04:23:17;;;;;;;48.80;28.38;;;;;;;;;;4993987;28;20045;-80
2022/12/28 04:25:45;;;;;;;46.35;28.00;;;;;;;;;;4993275;28;20064;-80
2022/12/28 04:28:13;;;;;;;51.55;27.15;;;;;;;;;;4993535;28;20053;-81
2022/12/28 04:30:41;;;;;;;50.38;28.92;;;;;;;;;;4995044;28;20088;-80
2022/12/28 04:33:08;;;;;;;53.88;29.73;;;;;;;;;;4991860;28;20049;-80
2022/12/28 04:35:35;;;;;;;48.53;28.67;;;;;;;;;;4991942;28;20053;-79
2022/12/28 04:38:03;;;;;;;51.65;31.65;;;;;;;;;;4980502;28;20633;-83
2022/12/28 04:40:31;;;;;;;52.45;31.95;;;;;;;;;;5003222;28;20060;-79
2022/12/28 04:42:58;;;;;;;50.65;28.98;;;;;;;;;;4997822;28;20049;-81
2022/12/28 04:45:27;;;;;;;53.50;29.63;;;;;;;;;;4996364;28;20045;-80
2022/12/28 04:47:57;;;;;;;57.53;29.73;;;;;;;;;;5000926;28;20038;-82
2022/12/28 04:50:24;;;;;;;54.10;29.33;;;;;;;;;;4995455;28;20057;-83
2022/12/28 04:52:51;;;;;;;56.28;27.73;;;;;;;;;;4986715;28;20054;-80
2022/12/28 04:55:19;;;;;;;54.78;29.15;;;;;;;;;;4996222;28;20550;-81
2022/12/28 04:57:46;;;;;;;56.28;27.65;;;;;;;;;;4989782;28;20083;-80
2022/12/28 05:00:14;;;;;;;63.10;29.17;;;;;;;;;;4992175;28;20382;-82
2022/12/28 05:02:43;;;;;;;45.58;25.02;;;;;;;;;;5000375;28;20049;-79
2022/12/28 05:05:10;;;;;;;47.15;25.15;;;;;;;;;;4993832;28;20294;-80
2022/12/28 05:07:37;;;;;;;42.63;23.98;;;;;;;;;;4998766;28;20053;-80
2022/12/28 05:10:05;;;;;;;48.10;25.27;;;;;;;;;;4998231;28;20060;-83
2022/12/28 05:12:32;;;;;;;44.22;22.70;;;;;;;;;;5008901;28;20133;-80
2022/12/28 05:15:00;;;;;;;38.65;21.83;;;;;;;;;;4999014;28;20412;-80
2022/12/28 05:17:27;;;;;;;49.05;22.33;;;;;;;;;;4999744;28;20041;-80
2022/12/28 05:19:55;;;;;;;36.13;19.60;;;;;;;;;;4996905;28;20059;-81
2022/12/28 05:22:23;;;;;;;39.45;17.85;;;;;;;;;;4995658;28;20045;-80
2022/12/28 05:24:50;;;;;;;40.10;18.98;;;;;;;;;;4995096;28;20046;-82
2022/12/28 05:27:17;;;;;;;41.80;18.27;;;;;;;;;;5000640;28;20049;-83
2022/12/28 05:29:45;;;;;;;42.05;16.67;;;;;;;;;;4987747;28;20085;-81
2022/12/28 05:32:12;;;;;;;39.72;16.13;;;;;;;;;;4996895;28;20057;-81
2022/12/28 05:34:39;;;;;;;43.33;14.13;;;;;;;;;;4988106;28;20532;-78
2022/12/28 05:37:08;;;;;;;34.85;12.57;;;;;;;;;;5003816;28;20708;-82
2022/12/28 05:39:35;;;;;;;28.40;10.85;;;;;;;;;;4997603;28;20060;-79
2022/12/28 05:42:02;;;;;;;25.92;10.40;;;;;;;;;;4997507;28;20056;-80
2022/12/28 05:44:30;;;;;;;25.48;9.65;;;;;;;;;;4988924;28;20636;-80
2022/12/28 05:46:57;;;;;;;25.65;9.18;;;;;;;;;;4998326;28;21179;-80
2022/12/28 05:49:25;;;;;;;23.08;8.10;;;;;;;;;;4998678;28;20065;-80
2022/12/28 05:51:52;;;;;;;20.95;7.45;;;;;;;;;;4992600;28;20046;-79
2022/12/28 05:54:21;;;;;;;17.75;7.13;;;;;;;;;;4998437;28;20485;-80
2022/12/28 05:56:50;;;;;;;16.95;6.43;;;;;;;;;;5025214;28;20050;-80
2022/12/28 05:59:17;;;;;;;19.10;6.43;;;;;;;;;;4999743;28;20053;-80
2022/12/28 06:01:45;;;;;;;17.63;6.43;;;;;;;;;;5025039;28;20085;-79
2022/12/28 06:04:15;;;;;;;19.67;6.90;;;;;;;;;;5001335;28;20417;-78
2022/12/28 06:06:42;;;;;;;15.07;6.88;;;;;;;;;;4990833;28;20041;-79
2022/12/28 06:09:09;;;;;;;25.85;8.15;;;;;;;;;;4992411;28;20080;-78
2022/12/28 06:11:38;;;;;;;27.70;7.40;;;;;;;;;;4988138;28;20049;-78
2022/12/28 06:14:05;;;;;;;19.55;7.43;;;;;;;;;;4998019;28;20095;-81
2022/12/28 06:16:33;;;;;;;21.65;8.40;;;;;;;;;;4992671;28;20060;-79
2022/12/28 06:19:04;;;;;;;25.70;7.57;;;;;;;;;;4995224;28;20093;-79
2022/12/28 06:21:32;;;;;;;28.08;8.88;;;;;;;;;;4988524;28;20045;-80
2022/12/28 06:24:01;;;;;;;24.33;8.23;;;;;;;;;;4979474;28;20141;-80
2022/12/28 06:26:29;;;;;;;25.58;8.98;;;;;;;;;;5001476;28;20046;-80
2022/12/28 06:28:57;;;;;;;24.52;8.88;;;;;;;;;;4999097;28;20678;-82
2022/12/28 06:31:26;;;;;;;28.40;9.82;;;;;;;;;;5003814;28;20063;-82
2022/12/28 06:33:55;;;;;;;21.23;7.70;;;;;;;;;;5002008;28;20801;-79
2022/12/28 06:36:24;;;;;;;27.88;8.45;;;;;;;;;;5005369;28;20064;-80
2022/12/28 06:38:52;;;;;;;25.85;9.48;;;;;;;;;;5001718;28;20052;-81
2022/12/28 06:41:20;;;;;;;24.02;9.82;;;;;;;;;;5006912;28;20057;-81
2022/12/28 06:43:47;;;;;;;23.38;9.35;;;;;;;;;;5002200;28;20052;-80
2022/12/28 06:46:17;;;;;;;29.88;9.43;;;;;;;;;;5004769;28;20056;-82
2022/12/28 06:48:44;;;;;;;27.85;9.45;;;;;;;;;;5003767;28;20053;-80
2022/12/28 06:51:13;;;;;;;21.35;8.35;;;;;;;;;;5000871;28;20053;-78
2022/12/28 06:53:40;;;;;;;28.83;9.65;;;;;;;;;;5011242;28;20076;-79
2022/12/28 06:56:09;;;;;;;29.45;9.80;;;;;;;;;;5003984;28;20053;-80
2022/12/28 06:58:36;;;;;;;28.70;11.70;;;;;;;;;;5005367;28;20455;-80
2022/12/28 07:01:07;;;;;;;36.20;12.02;;;;;;;;;;5004636;28;20053;-82
2022/12/28 07:03:36;;;;;;;29.63;11.75;;;;;;;;;;5005833;28;20080;-79
2022/12/28 07:06:04;;;;;;;38.03;11.60;;;;;;;;;;5000903;28;20041;-80
2022/12/28 07:08:31;;;;;;;30.98;11.68;;;;;;;;;;5008084;28;20057;-78
2022/12/28 07:11:02;;;;;;;35.38;11.98;;;;;;;;;;5036268;28;20053;-84
2022/12/28 07:13:29;;;;;;;40.95;11.52;;;;;;;;;;4993032;28;20045;-79
2022/12/28 07:15:57;;;;;;;38.50;11.75;;;;;;;;;;5000423;28;20790;-78
2022/12/28 07:18:24;;;;;;;37.90;12.07;;;;;;;;;;4999725;28;20573;-79
2022/12/28 07:20:58;;;;;;;42.83;11.75;;;;;;;;;;4997509;28;20139;-80
2022/12/28 07:23:28;;;;;;;58.17;12.52;;;;;;;;;;5032262;28;20055;-81
2022/12/28 07:25:56;;;;;;;46.92;12.98;;;;;;;;;;4997849;28;21187;-78
2022/12/28 07:28:24;;;;;;;42.35;11.20;;;;;;;;;;4991323;28;20064;-81
2022/12/28 07:30:51;;;;;;;58.83;11.50;;;;;;;;;;4998386;28;20098;-78
2022/12/28 07:33:20;;;;;;;43.42;10.38;;;;;;;;;;5000322;28;20046;-83
2022/12/28 07:35:47;;;;;;;53.65;11.15;;;;;;;;;;4994456;28;20064;-81
2022/12/28 07:38:16;;;;;;;45.85;9.13;;;;;;;;;;4997246;28;20050;-77
2022/12/28 07:40:43;;;;;;;45.15;10.35;;;;;;;;;;4997706;28;20057;-80
2022/12/28 07:43:10;;;;;;;37.55;8.75;;;;;;;;;;4993683;28;20463;-78
2022/12/28 07:45:38;;;;;;;57.83;11.57;;;;;;;;;;4998614;28;20599;-77
2022/12/28 07:48:05;;;;;;;52.95;9.25;;;;;;;;;;4992073;28;20503;-78
2022/12/28 07:50:32;;;;;;;54.53;8.70;;;;;;;;;;4999243;28;20050;-78
2022/12/28 07:53:01;;;;;;;62.83;8.90;;;;;;;;;;4992176;28;20072;-78
2022/12/28 07:55:30;;;;;;;55.67;9.13;;;;;;;;;;4998455;28;20056;-80
2022/12/28 07:57:58;;;;;;;64.90;9.15;;;;;;;;;;4994567;28;20093;-80
2022/12/28 08:00:25;;;;;;;70.82;10.18;;;;;;;;;;4996594;28;20060;-80
2022/12/28 08:02:55;;;;;;;61.67;11.05;;;;;;;;;;4997415;28;20806;-80
2022/12/28 08:05:23;;;;;;;57.85;9.32;;;;;;;;;;4996174;28;20085;-79
2022/12/28 08:07:50;;;;;;;72.00;10.55;;;;;;;;;;4996918;28;20041;-80
2022/12/28 08:10:18;;;;;;;48.25;9.57;;;;;;;;;;4994651;28;20045;-80
2022/12/28 08:12:46;;;;;;;49.10;10.20;;;;;;;;;;4995762;28;20049;-79
2022/12/28 08:15:14;;;;;;;57.63;9.70;;;;;;;;;;4993516;28;20045;-79
2022/12/28 08:17:41;;;;;;;61.92;11.23;;;;;;;;;;4995787;28;20500;-82
2022/12/28 08:20:09;;;;;;;38.85;8.70;;;;;;;;;;4995397;28;20469;-81
2022/12/28 08:22:36;;;;;;;24.90;9.02;;;;;;;;;;4998536;28;20056;-78
2022/12/28 08:25:03;;;;;;;32.30;9.15;;;;;;;;;;4994282;28;20132;-78
2022/12/28 08:27:30;;;;;;;36.42;10.20;;;;;;;;;;5011561;28;20045;-79
2022/12/28 08:29:59;;;;;;;33.65;8.52;;;;;;;;;;4995957;28;20620;-78
2022/12/28 08:32:27;;;;;;;25.63;7.95;;;;;;;;;;4993208;28;20050;-81
2022/12/28 08:34:54;;;;;;;32.53;8.45;;;;;;;;;;5002114;28;20128;-79
2022/12/28 08:37:21;;;;;;;29.95;9.32;;;;;;;;;;4996695;28;20115;-78
2022/12/28 08:39:49;;;;;;;25.63;8.45;;;;;;;;;;4999670;28;20052;-79
2022/12/28 08:42:16;;;;;;;30.58;8.50;;;;;;;;;;4993303;28;20116;-78
2022/12/28 08:44:43;;;;;;;31.33;9.73;;;;;;;;;;4996506;28;20496;-78
2022/12/28 08:47:12;;;;;;;16.98;6.32;;;;;;;;;;4993491;28;20484;-80
2022/12/28 08:49:39;;;;;;;17.98;6.10;;;;;;;;;;5001278;28;20064;-81
2022/12/28 08:52:06;;;;;;;19.30;6.30;;;;;;;;;;4997031;28;20693;-79
2022/12/28 08:54:34;;;;;;;17.95;5.18;;;;;;;;;;4996754;28;20111;-78
2022/12/28 08:57:01;;;;;;;13.70;5.00;;;;;;;;;;4990474;28;20390;-80
2022/12/28 08:59:28;;;;;;;12.63;4.78;;;;;;;;;;4992298;28;20049;-80
2022/12/28 09:01:56;;;;;;;11.00;3.97;;;;;;;;;;4994500;28;20605;-79
2022/12/28 09:04:24;;;;;;;18.30;4.65;;;;;;;;;;5002094;28;20088;-79
2022/12/28 09:06:51;;;;;;;14.20;4.70;;;;;;;;;;5034771;28;20045;-80
2022/12/28 09:09:20;;;;;;;12.85;4.20;;;;;;;;;;4999049;28;20049;-79
2022/12/28 09:11:48;;;;;;;7.70;3.50;;;;;;;;;;5001596;28;20056;-80
2022/12/28 09:14:16;;;;;;;9.85;3.63;;;;;;;;;;5004468;28;20064;-79
2022/12/28 09:16:43;;;;;;;10.70;3.88;;;;;;;;;;5006009;28;20144;-79
2022/12/28 09:19:13;;;;;;;9.52;3.25;;;;;;;;;;4997532;28;20389;-82
2022/12/28 09:21:44;;;;;;;8.65;3.10;;;;;;;;;;5001978;28;20050;-79
2022/12/28 09:24:13;;;;;;;8.52;3.10;;;;;;;;;;5017849;28;20601;-79
2022/12/28 09:26:40;;;;;;;8.45;2.15;;;;;;;;;;4998020;28;20089;-79
2022/12/28 09:29:11;;;;;;;7.88;2.42;;;;;;;;;;4995826;28;20129;-81
2022/12/28 09:31:39;;;;;;;8.45;2.00;;;;;;;;;;4988042;28;20057;-79
2022/12/28 09:34:07;;;;;;;5.07;2.30;;;;;;;;;;4994655;28;20049;-80
2022/12/28 09:36:35;;;;;;;11.20;2.78;;;;;;;;;;4993870;28;20748;-79
2022/12/28 09:39:05;;;;;;;11.48;3.75;;;;;;;;;;4996961;28;20129;-81
2022/12/28 09:41:34;;;;;;;16.45;6.05;;;;;;;;;;4988942;28;20544;-80
2022/12/28 09:44:08;;;;;;;19.67;6.68;;;;;;;;;;4989711;28;20053;-79
2022/12/28 09:46:36;;;;;;;17.10;6.97;;;;;;;;;;4991079;28;20046;-80
2022/12/28 09:49:05;;;;;;;21.52;7.22;;;;;;;;;;4999207;28;20055;-79
2022/12/28 09:51:33;;;;;;;24.10;7.60;;;;;;;;;;5000276;28;20056;-79
2022/12/28 09:54:00;;;;;;;20.83;8.00;;;;;;;;;;5000543;28;20588;-81
2022/12/28 09:56:30;;;;;;;16.23;7.32;;;;;;;;;;5002195;28;20049;-79
2022/12/28 09:58:57;;;;;;;21.02;6.95;;;;;;;;;;5000326;28;20046;-79
2022/12/28 10:01:25;;;;;;;12.88;6.00;;;;;;;;;;4999041;28;20050;-81
2022/12/28 10:03:52;;;;;;;11.93;4.47;;;;;;;;;;4996478;28;20064;-80
2022/12/28 10:06:22;;;;;;;14.35;5.25;;;;;;;;;;5043314;28;20060;-79
2022/12/28 10:08:51;;;;;;;10.38;4.22;;;;;;;;;;5005237;28;20092;-80
2022/12/28 10:11:20;;;;;;;10.65;3.97;;;;;;;;;;5010208;28;20049;-80
2022/12/28 10:13:50;;;;;;;7.60;3.60;;;;;;;;;;5008604;28;20063;-80
2022/12/28 10:16:18;;;;;;;12.13;4.00;;;;;;;;;;5005967;28;20053;-81
2022/12/28 10:18:46;;;;;;;8.10;4.03;;;;;;;;;;4994916;28;20492;-80
2022/12/28 10:21:13;;;;;;;8.18;4.05;;;;;;;;;;5003680;28;20108;-79
2022/12/28 10:23:41;;;;;;;12.10;4.43;;;;;;;;;;5001184;28;20050;-80
2022/12/28 10:26:13;;;;;;;13.00;5.13;;;;;;;;;;5008159;28;20060;-79
2022/12/28 10:28:44;;;;;;;12.30;5.97;;;;;;;;;;4995159;28;20049;-78
2022/12/28 10:31:13;;;;;;;13.82;6.25;;;;;;;;;;4999928;28;20063;-78
2022/12/28 10:33:41;;;;;;;12.85;5.45;;;;;;;;;;5001773;28;20455;-78
2022/12/28 10:36:11;;;;;;;11.63;5.40;;;;;;;;;;5004946;28;20055;-78
2022/12/28 10:38:39;;;;;;;12.50;5.90;;;;;;;;;;4997073;28;20056;-78
2022/12/28 10:41:08;;;;;;;16.48;6.85;;;;;;;;;;5006682;28;20184;-77
2022/12/28 10:43:36;;;;;;;16.35;6.18;;;;;;;;;;5005749;28;20135;-79
2022/12/28 10:46:05;;;;;;;12.27;6.00;;;;;;;;;;5002985;28;20057;-77
2022/12/28 10:48:34;;;;;;;18.33;7.15;;;;;;;;;;5000349;28;20065;-79
2022/12/28 10:51:11;;;;;;;16.02;7.30;;;;;;;;;;5003235;28;20496;-79
2022/12/28 10:53:42;;;;;;;30.30;9.15;;;;;;;;;;4999673;28;20577;-79
2022/12/28 10:56:18;;;;;;;25.55;11.30;;;;;;;;;;4995551;28;20072;-79
2022/12/28 10:58:46;;;;;;;30.55;13.98;;;;;;;;;;4995150;28;20041;-79
2022/12/28 11:01:17;;;;;;;33.97;17.67;;;;;;;;;;5000947;28;20056;-78
2022/12/28 11:03:57;;;;;;;40.15;18.92;;;;;;;;;;5017092;28;20064;-79
2022/12/28 11:06:31;;;;;;;50.03;22.67;;;;;;;;;;5003344;28;20429;-79
2022/12/28 11:09:05;;;;;;;49.65;22.60;;;;;;;;;;5000846;28;20847;-79
2022/12/28 11:11:32;;;;;;;;;;;;;;;;;;4996501;28;20052;-78
2022/12/28 11:14:01;;;;;;;44.50;18.85;;;;;;;;;;5003444;28;20016;-80
2022/12/28 11:16:28;;;;;;;44.80;17.88;;;;;;;;;;5004433;28;20049;-78
2022/12/28 11:18:57;;;;;;;46.60;18.90;;;;;;;;;;5034955;28;20417;-79
2022/12/28 11:21:24;;;;;;;37.10;17.08;;;;;;;;;;5003490;28;20076;-80
2022/12/28 11:23:52;;;;;;;37.75;17.02;;;;;;;;;;5004310;28;20077;-79
2022/12/28 11:26:20;;;;;;;34.67;14.02;;;;;;;;;;5004361;28;20503;-78
2022/12/28 11:28:50;;;;;;;32.65;15.18;;;;;;;;;;5002325;28;20056;-77
2022/12/28 11:31:20;;;;;;;35.80;16.95;;;;;;;;;;5005095;28;20045;-78
2022/12/28 11:33:49;;;;;;;40.85;16.83;;;;;;;;;;5008327;28;20069;-79
2022/12/28 11:36:19;;;;;;;30.70;15.25;;;;;;;;;;5007851;28;20129;-78
2022/12/28 11:38:47;;;;;;;27.73;13.55;;;;;;;;;;5001957;28;20041;-77
2022/12/28 11:41:35;;;;;;;26.17;12.18;;;;;;;;;;5006095;28;20088;-77
2022/12/28 11:44:04;;;;;;;32.22;14.13;;;;;;;;;;5002587;28;20090;-78
2022/12/28 11:46:41;;;;;;;30.23;13.98;;;;;;;;;;5006685;28;20059;-79
2022/12/28 11:49:32;;;;;;;25.13;13.13;;;;;;;;;;5003173;28;20060;-77
2022/12/28 11:52:22;;;;;;;29.80;13.98;;;;;;;;;;4985669;28;20124;-77
2022/12/28 11:54:53;;;;;;;25.05;13.70;;;;;;;;;;5003072;28;20058;-78
2022/12/28 11:57:33;;;;;;;25.27;12.63;;;;;;;;;;5007690;28;20061;-78
2022/12/28 12:00:15;;;;;;;28.42;13.75;;;;;;;;;;5000176;28;20053;-78
2022/12/28 12:02:47;;;;;;;24.23;13.07;;;;;;;;;;5003229;28;20129;-77
2022/12/28 12:05:29;;;;;;;21.80;12.23;;;;;;;;;;5003530;28;20049;-80
2022/12/28 12:07:57;;;;;;;21.00;12.25;;;;;;;;;;5004252;28;20088;-77
2022/12/28 12:10:32;;;;;;;17.38;10.88;;;;;;;;;;5007500;28;20606;-78
2022/12/28 12:13:00;;;;;;;18.23;10.50;;;;;;;;;;5002931;28;20574;-80
2022/12/28 12:15:33;;;;;;;19.17;10.85;;;;;;;;;;5005125;28;20053;-78
2022/12/28 12:18:01;;;;;;;;;;;;;;;;;;5007922;28;20073;-77
2022/12/28 12:20:40;;;;;;;19.67;9.98;;;;;;;;;;5003303;28;19943;-77
2022/12/28 12:23:09;;;;;;;20.30;11.23;;;;;;;;;;5007281;28;20072;-77
2022/12/28 12:25:42;;;;;;;17.50;11.18;;;;;;;;;;5003067;28;20512;-79
2022/12/28 12:28:16;;;;;;;22.85;11.13;;;;;;;;;;5006472;28;20123;-79
2022/12/28 12:30:44;;;;;;;18.95;11.52;;;;;;;;;;5008233;28;21285;-78
2022/12/28 12:33:14;;;;;;;22.33;12.07;;;;;;;;;;5008501;28;20061;-78
2022/12/28 12:35:47;;;;;;;21.08;11.60;;;;;;;;;;5004562;28;20049;-77
2022/12/28 12:38:14;;;;;;;;;;;;;;;;;;5007944;28;20049;-77
2022/12/28 12:40:49;;;;;;;20.85;12.38;;;;;;;;;;5009257;28;19933;-78
2022/12/28 12:43:26;;;;;;;22.63;13.00;;;;;;;;;;5014102;28;20049;-77
2022/12/28 12:45:56;;;;;;;24.17;14.80;;;;;;;;;;5008672;28;20124;-78
2022/12/28 12:48:32;;;;;;;23.98;15.43;;;;;;;;;;5007015;28;20492;-77
2022/12/28 12:51:04;;;;;;;22.02;14.45;;;;;;;;;;5004296;28;20121;-79
2022/12/28 12:53:37;;;;;;;31.88;14.68;;;;;;;;;;5000779;28;20055;-76
2022/12/28 12:56:08;;;;;;;21.92;14.55;;;;;;;;;;5007437;28;20053;-77
2022/12/28 12:58:43;;;;;;;26.92;15.43;;;;;;;;;;5008235;28;20053;-77
2022/12/28 13:01:18;;;;;;;22.95;14.82;;;;;;;;;;5007084;28;20053;-77
2022/12/28 13:03:46;;;;;;;27.15;15.85;;;;;;;;;;5007091;28;20128;-78
2022/12/28 13:06:15;;;;;;;23.67;15.18;;;;;;;;;;5007896;28;20049;-78
2022/12/28 13:08:46;;;;;;;25.35;14.50;;;;;;;;;;5004590;28;20049;-78
2022/12/28 13:11:16;;;;;;;18.27;13.80;;;;;;;;;;5006224;28;20058;-77
2022/12/28 13:13:45;;;;;;;26.65;15.20;;;;;;;;;;5009116;28;20492;-78
2022/12/28 13:16:15;;;;;;;23.92;14.82;;;;;;;;;;5006257;28;20041;-77
2022/12/28 13:18:52;;;;;;;21.80;14.70;;;;;;;;;;5005859;28;20053;-78
2022/12/28 13:21:20;;;;;;;22.42;13.35;;;;;;;;;;5007932;28;20049;-78
2022/12/28 13:23:48;;;;;;;21.88;14.57;;;;;;;;;;5004298;28;20615;-78
2022/12/28 13:26:17;;;;;;;18.25;12.65;;;;;;;;;;5003092;28;20068;-79
2022/12/28 13:28:50;;;;;;;22.38;13.65;;;;;;;;;;5006688;28;20060;-77
2022/12/28 13:31:18;;;;;;;;;;;;;;;;;;5008143;28;20055;-78
2022/12/28 13:33:54;;;;;;;20.92;11.57;;;;;;;;;;5004115;28;19935;-76
2022/12/28 13:36:21;;;;;;;18.67;10.95;;;;;;;;;;5010725;28;20079;-76
2022/12/28 13:38:59;;;;;;;16.42;10.23;;;;;;;;;;5009812;28;20680;-79
2022/12/28 13:41:28;;;;;;;15.75;9.32;;;;;;;;;;5005578;28;20053;-77
2022/12/28 13:44:23;;;;;;;16.27;10.02;;;;;;;;;;5012482;28;20139;-78
2022/12/28 13:46:52;;;;;;;12.13;8.25;;;;;;;;;;5006830;28;20469;-78
2022/12/28 13:49:20;;;;;;;18.33;8.35;;;;;;;;;;4997284;28;20045;-78
2022/12/28 13:51:48;;;;;;;15.98;8.23;;;;;;;;;;5006915;28;20057;-78
2022/12/28 13:54:15;;;;;;;14.13;7.93;;;;;;;;;;5006843;28;20389;-78
2022/12/28 13:56:45;;;;;;;12.75;7.03;;;;;;;;;;5007704;28;20088;-77
2022/12/28 13:59:14;;;;;;;12.68;7.57;;;;;;;;;;5002495;28;20042;-77
2022/12/28 14:01:42;;;;;;;17.30;7.47;;;;;;;;;;5005262;28;20057;-77
2022/12/28 14:04:11;;;;;;;12.55;6.63;;;;;;;;;;5011918;28;20654;-78
2022/12/28 14:06:40;;;;;;;12.93;6.50;;;;;;;;;;4995744;28;20053;-77
2022/12/28 14:09:09;;;;;;;14.20;6.55;;;;;;;;;;5005489;28;20408;-78
2022/12/28 14:11:37;;;;;;;14.48;6.75;;;;;;;;;;4999783;28;20814;-78
2022/12/28 14:14:06;;;;;;;13.88;7.10;;;;;;;;;;4996096;28;20050;-78
2022/12/28 14:16:33;;;;;;;14.80;6.13;;;;;;;;;;5000312;28;20463;-77
2022/12/28 14:19:01;;;;;;;13.02;6.07;;;;;;;;;;4990178;28;20548;-78
2022/12/28 14:21:32;;;;;;;15.02;5.60;;;;;;;;;;4993702;28;20049;-78
2022/12/28 14:24:03;;;;;;;13.07;6.57;;;;;;;;;;4998830;28;20048;-77
2022/12/28 14:26:30;;;;;;;19.60;7.93;;;;;;;;;;4999372;28;20055;-77
2022/12/28 14:28:58;;;;;;;16.55;7.78;;;;;;;;;;5001164;28;20057;-77
2022/12/28 14:31:28;;;;;;;18.80;7.55;;;;;;;;;;5000097;28;20057;-76
2022/12/28 14:33:56;;;;;;;16.35;9.23;;;;;;;;;;5000590;28;20068;-76
2022/12/28 14:36:27;;;;;;;16.30;8.05;;;;;;;;;;4999474;28;20050;-76
2022/12/28 14:38:55;;;;;;;17.50;7.90;;;;;;;;;;5001218;28;20099;-75
2022/12/28 14:41:26;;;;;;;15.93;7.65;;;;;;;;;;4999034;28;20054;-76
2022/12/28 14:43:54;;;;;;;18.60;7.78;;;;;;;;;;5004158;28;20048;-75
2022/12/28 14:46:31;;;;;;;20.05;7.47;;;;;;;;;;5000181;28;20050;-77
2022/12/28 14:48:59;;;;;;;16.40;7.00;;;;;;;;;;5001462;28;20698;-77
2022/12/28 14:51:28;;;;;;;14.57;7.35;;;;;;;;;;5002538;28;20108;-77
2022/12/28 14:54:14;;;;;;;13.75;6.82;;;;;;;;;;5002079;28;20084;-76
2022/12/28 14:56:41;;;;;;;21.30;8.07;;;;;;;;;;5002465;28;20065;-78
2022/12/28 14:59:16;;;;;;;33.30;8.95;;;;;;;;;;5006444;28;20042;-74
2022/12/28 15:01:45;;;;;;;18.17;7.72;;;;;;;;;;5005774;28;20593;-76
2022/12/28 15:04:25;;;;;;;22.45;7.57;;;;;;;;;;5006494;28;20863;-76